Time;durP1;ratioP1;P1;durP2;ratioP2;P2;SDS_P1;SDS_P2;PMS_P1;PMS_P2;Temp;Humidity;BMP_temperature;BMP_pressure;BME280_temperature;BME280_humidity;BME280_pressure;Samples;Min_cycle;Max_cycle;Signal;HPM_P1;HPM_P2
2023/01/23 00:01:42;;;;;;;;;;;2.30;99.90;;;;;;8393346;28;20380;-72
2023/01/23 00:05:44;;;;;;;;;;;2.30;99.90;;;;;;8395506;28;20092;-72
2023/01/23 00:25:16;;;;;;;;;;;2.30;99.90;;;;;;8404786;28;19924;-73
2023/01/23 00:29:18;;;;;;;;;;;2.30;99.90;;;;;;8378553;28;19947;-73
2023/01/23 00:33:19;;;;;;;;;;;2.30;99.90;;;;;;8408416;28;19924;-72
2023/01/23 00:37:21;;;;;;;;;;;2.30;99.90;;;;;;8403915;28;19930;-73
2023/01/23 00:41:23;;;;;;;;;;;2.30;99.90;;;;;;8405083;28;19928;-73
2023/01/23 00:45:24;;;;;;;;;;;2.30;99.90;;;;;;8387181;28;20376;-72
2023/01/23 00:49:26;;;;;;;;;;;2.30;99.90;;;;;;8390481;28;20294;-73
2023/01/23 01:08:37;;;;;;;;;;;2.30;99.90;;;;;;8389997;28;19973;-73
2023/01/23 01:12:39;;;;;;;;;;;2.30;99.90;;;;;;8394110;28;19925;-72
2023/01/23 01:16:44;;;;;;;;;;;2.30;99.90;;;;;;8388859;28;19935;-73
2023/01/23 01:20:46;;;;;;;;;;;2.30;99.90;;;;;;8374570;28;20211;-72
2023/01/23 01:24:48;;;;;;;;;;;2.30;99.90;;;;;;8401873;28;19934;-73
2023/01/23 01:28:49;;;;;;;;;;;2.30;99.90;;;;;;8407350;28;19962;-73
2023/01/23 01:32:51;;;;;;;;;;;2.30;99.90;;;;;;8400966;28;19979;-73
2023/01/23 01:36:53;;;;;;;;;;;2.30;99.90;;;;;;8405394;28;20454;-72
2023/01/23 01:40:56;;;;;;;;;;;2.30;99.90;;;;;;8404095;28;19928;-73
2023/01/23 01:44:58;;;;;;;;;;;2.30;99.90;;;;;;8389722;28;19955;-73
2023/01/23 01:49:03;;;;;;;;;;;2.30;99.90;;;;;;8402894;28;19928;-73
2023/01/23 01:53:05;;;;;;;;;;;2.30;99.90;;;;;;8401337;28;19935;-72
2023/01/23 01:57:06;;;;;;;;;;;2.30;99.90;;;;;;8386861;28;19928;-73
2023/01/23 02:01:08;;;;;;;;;;;2.30;99.90;;;;;;8404787;28;19937;-73
2023/01/23 02:05:12;;;;;;;;;;;2.30;99.90;;;;;;8399549;28;19933;-73
2023/01/23 02:09:17;;;;;;;;;;;2.30;99.90;;;;;;8391045;28;19925;-73
2023/01/23 02:13:29;;;;;;;;;;;2.30;99.90;;;;;;8421600;28;19924;-72
2023/01/23 02:17:31;;;;;;;;;;;2.30;99.90;;;;;;8405834;28;19925;-73
2023/01/23 02:21:34;;;;;;;;;;;2.40;99.90;;;;;;8407548;28;20012;-72
2023/01/23 02:25:36;;;;;;;;;;;2.40;99.90;;;;;;8409086;28;19971;-73
2023/01/23 02:29:38;;;;;;;;;;;2.30;99.90;;;;;;8395633;28;19931;-73
2023/01/23 02:33:45;;;;;;;;;;;2.40;99.90;;;;;;8382468;28;20377;-72
2023/01/23 02:37:47;;;;;;;;;;;2.30;99.90;;;;;;8407390;28;19925;-72
2023/01/23 02:41:49;;;;;;;;;;;2.30;99.90;;;;;;8383466;28;19936;-73
2023/01/23 02:45:52;;;;;;;;;;;2.30;99.90;;;;;;8386240;28;19938;-72
2023/01/23 02:49:54;;;;;;;;;;;2.30;99.90;;;;;;8385425;28;20441;-73
2023/01/23 02:53:55;;;;;;;;;;;2.40;99.90;;;;;;8381272;28;19963;-73
2023/01/23 03:00:14;;;;;;;;;;;2.40;99.90;;;;;;8411432;28;19932;-72
2023/01/23 03:02:19;;;;;;;;;;;2.40;99.90;;;;;;8380644;28;20339;-73
2023/01/23 03:06:21;;;;;;;;;;;2.40;99.90;;;;;;8401638;28;19939;-73
2023/01/23 03:10:23;;;;;;;;;;;2.40;99.90;;;;;;8402252;28;19976;-72
2023/01/23 03:14:25;;;;;;;;;;;2.40;99.90;;;;;;8395683;28;19939;-72
2023/01/23 03:18:27;;;;;;;;;;;2.40;99.90;;;;;;8386330;28;19933;-73
2023/01/23 03:22:28;;;;;;;;;;;2.40;99.90;;;;;;8400355;28;19924;-72
2023/01/23 03:26:30;;;;;;;;;;;2.40;99.90;;;;;;8384856;28;20024;-72
2023/01/23 03:30:32;;;;;;;;;;;2.40;99.90;;;;;;8379976;28;19928;-72
2023/01/23 03:34:34;;;;;;;;;;;2.40;99.90;;;;;;8398001;28;19924;-72
2023/01/23 03:48:43;;;;;;;;;;;2.40;99.90;;;;;;8389399;28;19947;-72
2023/01/23 03:52:45;;;;;;;;;;;2.40;99.90;;;;;;8405827;28;20335;-72
2023/01/23 03:56:46;;;;;;;;;;;2.40;99.90;;;;;;8409014;28;19939;-72
2023/01/23 04:00:48;;;;;;;;;;;2.40;99.90;;;;;;8380369;28;19937;-73
2023/01/23 04:04:50;;;;;;;;;;;2.40;99.90;;;;;;8381134;28;20367;-72
2023/01/23 04:08:51;;;;;;;;;;;2.40;99.90;;;;;;8379389;28;19928;-73
2023/01/23 04:12:53;;;;;;;;;;;2.40;99.90;;;;;;8404783;28;19924;-73
2023/01/23 04:16:55;;;;;;;;;;;2.40;99.90;;;;;;8410059;28;20591;-72
2023/01/23 04:20:56;;;;;;;;;;;2.40;99.90;;;;;;8381414;28;19974;-72
2023/01/23 04:24:58;;;;;;;;;;;2.40;99.90;;;;;;8388220;28;19950;-72
2023/01/23 04:28:59;;;;;;;;;;;2.40;99.90;;;;;;8402152;28;20383;-72
2023/01/23 04:33:01;;;;;;;;;;;2.40;99.90;;;;;;8386783;28;20364;-73
2023/01/23 04:37:03;;;;;;;;;;;2.40;99.90;;;;;;8395284;28;20429;-72
2023/01/23 04:41:05;;;;;;;;;;;2.50;99.90;;;;;;8390111;28;19925;-72
2023/01/23 04:45:07;;;;;;;;;;;2.50;99.90;;;;;;8398255;28;20358;-72
2023/01/23 04:49:08;;;;;;;;;;;2.50;99.90;;;;;;8382477;28;20012;-73
2023/01/23 04:53:10;;;;;;;;;;;2.50;99.90;;;;;;8377846;28;20308;-74
2023/01/23 04:57:12;;;;;;;;;;;2.50;99.90;;;;;;8405018;28;19929;-74
2023/01/23 05:01:13;;;;;;;;;;;2.50;99.90;;;;;;8396849;28;19935;-74
2023/01/23 05:05:16;;;;;;;;;;;2.50;99.90;;;;;;8392771;28;19946;-74
2023/01/23 05:09:18;;;;;;;;;;;2.50;99.90;;;;;;8380023;28;19930;-73
2023/01/23 05:13:20;;;;;;;;;;;2.50;99.90;;;;;;8396021;28;19928;-74
2023/01/23 05:17:21;;;;;;;;;;;2.50;99.90;;;;;;8411652;28;19936;-74
2023/01/23 05:21:23;;;;;;;;;;;2.50;99.90;;;;;;8402712;28;20027;-74
2023/01/23 05:25:25;;;;;;;;;;;2.50;99.90;;;;;;8388721;28;20015;-74
2023/01/23 05:29:27;;;;;;;;;;;2.50;99.90;;;;;;8384535;28;20384;-74
2023/01/23 05:33:29;;;;;;;;;;;2.50;99.90;;;;;;8403538;28;19925;-74
2023/01/23 05:37:30;;;;;;;;;;;2.50;99.90;;;;;;8385378;28;19924;-73
2023/01/23 05:41:32;;;;;;;;;;;2.50;99.90;;;;;;8387046;28;20348;-74
2023/01/23 05:45:34;;;;;;;;;;;2.50;99.90;;;;;;8381177;28;20708;-74
2023/01/23 05:49:35;;;;;;;;;;;2.50;99.90;;;;;;8401126;28;20016;-74
2023/01/23 05:53:37;;;;;;;;;;;2.50;99.90;;;;;;8403270;28;19932;-74
2023/01/23 05:57:39;;;;;;;;;;;2.50;99.90;;;;;;8395667;28;20280;-73
2023/01/23 06:01:40;;;;;;;;;;;2.50;99.90;;;;;;8385240;28;20392;-73
2023/01/23 06:05:42;;;;;;;;;;;2.50;99.90;;;;;;8385228;28;19932;-74
2023/01/23 06:09:44;;;;;;;;;;;2.50;99.90;;;;;;8361008;28;19924;-74
2023/01/23 06:13:46;;;;;;;;;;;2.50;99.90;;;;;;8396637;28;19924;-74
2023/01/23 06:17:47;;;;;;;;;;;2.50;99.90;;;;;;8400780;28;20376;-74
2023/01/23 06:21:49;;;;;;;;;;;2.50;99.90;;;;;;8397425;28;19933;-73
2023/01/23 06:25:51;;;;;;;;;;;2.50;99.90;;;;;;8411094;28;19947;-73
2023/01/23 06:29:52;;;;;;;;;;;2.50;99.90;;;;;;8406046;28;20020;-74
2023/01/23 06:33:54;;;;;;;;;;;2.50;99.90;;;;;;8390386;28;19968;-74
2023/01/23 06:37:55;;;;;;;;;;;2.50;99.90;;;;;;8411315;28;20365;-74
2023/01/23 06:41:57;;;;;;;;;;;2.50;99.90;;;;;;8394001;28;19939;-74
2023/01/23 06:45:59;;;;;;;;;;;2.50;99.90;;;;;;8396809;28;19931;-74
2023/01/23 06:50:01;;;;;;;;;;;2.50;99.90;;;;;;8422502;28;20022;-74
2023/01/23 06:54:03;;;;;;;;;;;2.50;99.90;;;;;;8424224;28;19928;-74
2023/01/23 06:58:05;;;;;;;;;;;2.60;99.90;;;;;;8413284;28;19924;-74
2023/01/23 07:02:08;;;;;;;;;;;2.60;99.90;;;;;;8415866;28;19967;-73
2023/01/23 07:06:10;;;;;;;;;;;2.60;99.90;;;;;;8395007;28;19971;-74
2023/01/23 07:10:12;;;;;;;;;;;2.60;99.90;;;;;;8407880;28;20284;-74
2023/01/23 07:14:13;;;;;;;;;;;2.50;99.90;;;;;;8397549;28;20398;-74
2023/01/23 07:18:15;;;;;;;;;;;2.50;99.90;;;;;;8400220;28;20023;-74
2023/01/23 07:22:17;;;;;;;;;;;2.50;99.90;;;;;;8414817;28;19928;-74
2023/01/23 07:26:19;;;;;;;;;;;2.50;99.90;;;;;;8397779;28;19982;-73
2023/01/23 07:30:21;;;;;;;;;;;2.60;99.90;;;;;;8410629;28;19939;-74
2023/01/23 07:34:23;;;;;;;;;;;2.60;99.90;;;;;;8402040;28;20350;-74
2023/01/23 07:38:24;;;;;;;;;;;2.60;99.90;;;;;;8424906;28;20030;-73
2023/01/23 07:42:26;;;;;;;;;;;2.60;99.90;;;;;;8408245;28;19931;-74
2023/01/23 07:46:28;;;;;;;;;;;2.60;99.90;;;;;;8386536;28;19925;-74
2023/01/23 07:50:29;;;;;;;;;;;2.60;99.90;;;;;;8413154;28;19959;-73
2023/01/23 07:54:31;;;;;;;;;;;2.60;99.90;;;;;;8407285;28;19924;-74
2023/01/23 07:58:33;;;;;;;;;;;2.60;99.90;;;;;;8390480;28;20299;-74
2023/01/23 08:02:35;;;;;;;;;;;2.60;99.90;;;;;;8381492;28;19925;-73
2023/01/23 08:06:37;;;;;;;;;;;2.60;99.90;;;;;;8413821;28;19924;-74
2023/01/23 08:10:38;;;;;;;;;;;2.70;99.90;;;;;;8396515;28;19962;-74
2023/01/23 08:14:40;;;;;;;;;;;2.70;99.90;;;;;;8390706;28;19931;-74
2023/01/23 08:18:42;;;;;;;;;;;2.70;99.90;;;;;;8406697;28;20268;-74
2023/01/23 08:22:45;;;;;;;;;;;2.70;99.90;;;;;;8395912;28;20372;-74
2023/01/23 08:26:47;;;;;;;;;;;2.70;99.90;;;;;;8387257;28;19924;-74
2023/01/23 08:30:49;;;;;;;;;;;2.80;99.90;;;;;;8396379;28;20296;-74
2023/01/23 08:34:51;;;;;;;;;;;2.80;99.90;;;;;;8413784;28;19924;-74
2023/01/23 08:38:53;;;;;;;;;;;2.80;99.90;;;;;;8393386;28;20043;-74
2023/01/23 08:42:54;;;;;;;;;;;2.90;99.90;;;;;;8378932;28;20662;-74
2023/01/23 08:46:57;;;;;;;;;;;2.90;99.90;;;;;;8401887;28;19928;-74
2023/01/23 08:51:04;;;;;;;;;;;2.90;99.90;;;;;;8401583;28;19928;-74
2023/01/23 08:55:06;;;;;;;;;;;3.00;99.90;;;;;;8403210;28;19929;-74
2023/01/23 08:59:07;;;;;;;;;;;3.00;99.90;;;;;;8387995;28;20022;-73
2023/01/23 09:03:09;;;;;;;;;;;3.10;99.90;;;;;;8409983;28;20287;-74
2023/01/23 09:07:12;;;;;;;;;;;3.10;99.90;;;;;;8403944;28;19924;-74
2023/01/23 09:11:14;;;;;;;;;;;3.20;99.90;;;;;;8405578;28;20107;-74
2023/01/23 09:15:16;;;;;;;;;;;3.20;99.90;;;;;;8408106;28;19924;-74
2023/01/23 09:19:17;;;;;;;;;;;3.30;99.90;;;;;;8410147;28;19943;-74
2023/01/23 09:23:19;;;;;;;;;;;3.30;99.90;;;;;;8409708;28;19924;-74
2023/01/23 09:27:21;;;;;;;;;;;3.40;99.90;;;;;;8387966;28;20848;-74
2023/01/23 09:31:23;;;;;;;;;;;3.40;99.90;;;;;;8404457;28;19983;-74
2023/01/23 09:35:24;;;;;;;;;;;3.50;99.90;;;;;;8405567;28;19928;-74
2023/01/23 09:39:26;;;;;;;;;;;3.60;99.90;;;;;;8403122;28;19928;-74
2023/01/23 09:43:31;;;;;;;;;;;3.60;99.90;;;;;;8395327;28;19924;-74
2023/01/23 09:47:39;;;;;;;;;;;3.70;99.90;;;;;;8394545;28;19931;-74
2023/01/23 09:51:48;;;;;;;;;;;3.80;99.90;;;;;;8376571;28;19924;-74
2023/01/23 09:55:59;;;;;;;;;;;3.90;99.90;;;;;;8406100;28;19924;-74
2023/01/23 10:00:13;;;;;;;;;;;3.90;99.90;;;;;;8388344;28;19924;-74
2023/01/23 10:04:17;;;;;;;;;;;4.00;99.90;;;;;;8384746;28;19947;-74
2023/01/23 10:08:30;;;;;;;;;;;4.10;99.90;;;;;;8399268;28;20291;-74
2023/01/23 10:13:08;;;;;;;;;;;4.10;99.90;;;;;;8393436;28;19935;-73
2023/01/23 10:17:31;;;;;;;;;;;4.20;99.90;;;;;;8353273;28;20280;-74
2023/01/23 10:21:37;;;;;;;;;;;4.30;99.90;;;;;;8402889;28;19925;-74
2023/01/23 10:25:40;;;;;;;;;;;4.30;99.90;;;;;;8421894;28;19947;-74
2023/01/23 10:29:43;;;;;;;;;;;4.40;99.90;;;;;;8416501;28;20391;-74
2023/01/23 10:33:48;;;;;;;;;;;4.50;99.90;;;;;;8399284;28;19924;-74
2023/01/23 10:37:53;;;;;;;;;;;4.60;99.90;;;;;;8389010;28;19978;-73
2023/01/23 10:41:54;;;;;;;;;;;4.70;99.90;;;;;;8381871;28;19939;-74
2023/01/23 10:46:29;;;;;;;;;;;4.80;99.90;;;;;;8406271;28;19968;-73
2023/01/23 10:50:35;;;;;;;;;;;4.90;99.90;;;;;;8400981;28;19931;-74
2023/01/23 10:54:45;;;;;;;;;;;5.10;99.90;;;;;;8408320;28;19930;-74
2023/01/23 10:58:48;;;;;;;;;;;5.20;99.90;;;;;;8382431;28;20279;-74
2023/01/23 11:02:49;;;;;;;;;;;5.30;99.90;;;;;;8411694;28;19979;-74
2023/01/23 11:07:01;;;;;;;;;;;5.30;99.90;;;;;;8409629;28;20372;-74
2023/01/23 11:11:23;;;;;;;;;;;5.50;99.90;;;;;;8413067;28;19975;-74
2023/01/23 11:15:31;;;;;;;;;;;5.70;99.90;;;;;;8378819;28;19970;-74
2023/01/23 11:19:35;;;;;;;;;;;6.00;99.90;;;;;;8402089;28;19941;-74
2023/01/23 11:23:37;;;;;;;;;;;6.10;99.90;;;;;;8402688;28;19931;-74
2023/01/23 11:27:38;;;;;;;;;;;6.10;99.90;;;;;;8402901;28;20388;-74
2023/01/23 11:31:40;;;;;;;;;;;5.90;99.90;;;;;;8419055;28;20295;-74
2023/01/23 11:35:52;;;;;;;;;;;5.70;99.90;;;;;;8380551;28;19940;-73
2023/01/23 11:40:01;;;;;;;;;;;5.60;99.90;;;;;;8413268;28;20501;-74
2023/01/23 11:44:05;;;;;;;;;;;5.50;99.90;;;;;;8409172;28;19932;-74
2023/01/23 11:48:15;;;;;;;;;;;5.40;99.90;;;;;;8388022;28;19933;-74
2023/01/23 11:52:17;;;;;;;;;;;5.40;99.90;;;;;;8411504;28;19924;-73
2023/01/23 11:56:37;;;;;;;;;;;5.30;99.90;;;;;;8406171;28;20379;-74
2023/01/23 12:01:01;;;;;;;;;;;5.30;99.90;;;;;;8404978;28;19960;-74
2023/01/23 12:05:23;;;;;;;;;;;5.40;99.90;;;;;;8385161;28;19929;-74
2023/01/23 12:09:30;;;;;;;;;;;5.60;99.90;;;;;;8386790;28;19924;-74
2023/01/23 12:13:40;;;;;;;;;;;5.80;99.90;;;;;;8376149;28;19952;-74
2023/01/23 12:17:46;;;;;;;;;;;5.80;99.90;;;;;;8387316;28;19933;-74
2023/01/23 12:22:11;;;;;;;;;;;5.90;99.90;;;;;;8383833;28;19924;-74
2023/01/23 12:26:21;;;;;;;;;;;5.90;99.90;;;;;;8407458;28;19924;-74
2023/01/23 12:30:36;;;;;;;;;;;6.00;99.90;;;;;;8406159;28;19936;-74
2023/01/23 12:34:50;;;;;;;;;;;6.10;99.90;;;;;;8396080;28;19925;-74
2023/01/23 12:39:08;;;;;;;;;;;6.10;99.90;;;;;;8393034;28;19924;-74
2023/01/23 12:43:18;;;;;;;;;;;6.10;99.90;;;;;;8405106;28;19955;-74
2023/01/23 12:47:23;;;;;;;;;;;6.10;99.90;;;;;;8404446;28;20016;-74
2023/01/23 12:51:32;;;;;;;;;;;6.20;99.90;;;;;;8390828;28;20269;-74
2023/01/23 12:55:34;;;;;;;;;;;6.20;99.90;;;;;;8393267;28;19936;-74
2023/01/23 12:59:54;;;;;;;;;;;6.20;99.90;;;;;;8404639;28;19974;-74
2023/01/23 13:04:15;;;;;;;;;;;6.20;99.90;;;;;;8387904;28;19935;-74
2023/01/23 13:08:30;;;;;;;;;;;6.10;99.90;;;;;;8409839;28;19924;-74
2023/01/23 13:12:41;;;;;;;;;;;6.10;99.90;;;;;;8379598;28;20392;-73
2023/01/23 13:16:46;;;;;;;;;;;6.00;99.90;;;;;;8382994;28;19928;-74
2023/01/23 13:25:19;;;;;;;;;;;5.90;99.90;;;;;;8411754;28;20045;-74
2023/01/23 13:29:46;;;;;;;;;;;5.90;99.90;;;;;;8415174;28;19963;-74
2023/01/23 13:33:48;;;;;;;;;;;5.80;99.90;;;;;;8400607;28;19924;-74
2023/01/23 13:37:52;;;;;;;;;;;5.70;99.90;;;;;;8372536;28;19925;-74
2023/01/23 13:42:17;;;;;;;;;;;5.70;99.90;;;;;;8390244;28;19932;-74
2023/01/23 13:46:25;;;;;;;;;;;5.70;99.90;;;;;;8389771;28;19964;-73
2023/01/23 13:50:32;;;;;;;;;;;5.70;99.90;;;;;;8400800;28;19928;-74
2023/01/23 13:59:22;;;;;;;;;;;5.70;99.90;;;;;;8192495;29;19996;-74
2023/01/23 14:08:18;;;;;;;;;;;5.60;99.90;;;;;;8060549;29;19971;-74
2023/01/23 14:12:35;;;;;;;;;;;5.60;99.90;;;;;;7977069;29;20122;-74
2023/01/23 14:16:50;;;;;;;;;;;5.70;99.90;;;;;;7909873;29;20027;-74
2023/01/23 14:21:16;;;;;;;;;;;5.60;99.90;;;;;;7837471;30;20043;-74
2023/01/23 14:25:19;;;;;;;;;;;5.50;99.90;;;;;;7913607;29;19929;-74
2023/01/23 14:29:22;;;;;;;;;;;5.50;99.90;;;;;;8004697;29;19984;-74
2023/01/23 14:33:24;;;;;;;;;;;5.40;99.90;;;;;;8049529;29;20037;-74
2023/01/23 14:37:26;;;;;;;;;;;5.40;99.90;;;;;;8128835;29;19931;-74
2023/01/23 14:41:32;;;;;;;;;;;5.40;99.90;;;;;;8200894;28;20428;-74
2023/01/23 14:45:37;;;;;;;;;;;5.30;99.90;;;;;;8229444;28;19933;-74
2023/01/23 14:49:38;;;;;;;;;;;5.30;99.90;;;;;;8251292;28;19976;-74
2023/01/23 14:53:40;;;;;;;;;;;5.20;99.90;;;;;;8366591;28;19976;-74
2023/01/23 14:57:42;;;;;;;;;;;5.20;99.90;;;;;;8356277;28;19928;-73
2023/01/23 15:01:52;;;;;;;;;;;5.10;99.90;;;;;;8363821;28;20406;-74
2023/01/23 15:05:55;;;;;;;;;;;5.10;99.90;;;;;;8387552;28;20403;-74
2023/01/23 15:09:56;;;;;;;;;;;5.10;99.90;;;;;;8358701;28;19929;-74
2023/01/23 15:14:02;;;;;;;;;;;5.10;99.90;;;;;;8352990;28;20657;-74
2023/01/23 15:18:13;;;;;;;;;;;5.10;99.90;;;;;;8372821;28;19979;-74
2023/01/23 15:22:20;;;;;;;;;;;5.10;99.90;;;;;;8367400;28;20067;-74
2023/01/23 15:26:29;;;;;;;;;;;5.10;99.90;;;;;;8348716;28;19932;-74
2023/01/23 15:30:31;;;;;;;;;;;5.10;99.90;;;;;;8366315;28;19929;-74
2023/01/23 15:34:33;;;;;;;;;;;5.10;99.90;;;;;;8354807;28;19925;-74
2023/01/23 15:38:34;;;;;;;;;;;5.10;99.90;;;;;;8351191;28;19933;-74
2023/01/23 15:42:36;;;;;;;;;;;5.00;99.90;;;;;;8358923;28;19924;-74
2023/01/23 15:46:38;;;;;;;;;;;5.00;99.90;;;;;;8383341;28;19929;-75
2023/01/23 15:50:40;;;;;;;;;;;4.90;99.90;;;;;;8371772;28;19989;-74
2023/01/23 15:54:41;;;;;;;;;;;4.90;99.90;;;;;;8352210;28;19927;-74
2023/01/23 15:58:43;;;;;;;;;;;4.80;99.90;;;;;;8367919;28;20320;-74
2023/01/23 16:02:45;;;;;;;;;;;4.90;99.90;;;;;;8381530;28;19934;-74
2023/01/23 16:06:59;;;;;;;;;;;4.80;99.90;;;;;;8369271;28;20451;-74
2023/01/23 16:11:00;;;;;;;;;;;4.80;99.90;;;;;;8365957;28;20364;-74
2023/01/23 16:15:08;;;;;;;;;;;4.80;99.90;;;;;;8366983;28;19936;-74
2023/01/23 16:19:10;;;;;;;;;;;4.70;99.90;;;;;;8364050;28;19929;-74
2023/01/23 16:23:19;;;;;;;;;;;4.70;99.90;;;;;;8362561;28;19924;-74
2023/01/23 16:27:26;;;;;;;;;;;4.70;99.90;;;;;;8379977;28;19976;-74
2023/01/23 16:31:28;;;;;;;;;;;4.70;99.90;;;;;;8360703;28;19935;-74
2023/01/23 16:35:30;;;;;;;;;;;4.70;99.90;;;;;;8349291;28;19979;-74
2023/01/23 16:39:32;;;;;;;;;;;4.70;99.90;;;;;;8363228;28;19975;-74
2023/01/23 16:43:34;;;;;;;;;;;4.70;99.90;;;;;;8348287;28;19924;-74
2023/01/23 16:47:37;;;;;;;;;;;4.60;99.90;;;;;;8350603;28;19929;-74
2023/01/23 16:51:58;;;;;;;;;;;4.50;99.90;;;;;;8364263;28;20019;-74
2023/01/23 16:56:00;;;;;;;;;;;4.50;99.90;;;;;;8364150;28;20373;-74
2023/01/23 17:00:02;;;;;;;;;;;4.50;99.90;;;;;;8362238;28;19979;-74
2023/01/23 17:04:04;;;;;;;;;;;4.40;99.90;;;;;;8359871;28;19947;-74
2023/01/23 17:08:32;;;;;;;;;;;4.50;99.90;;;;;;8346122;28;19929;-74
2023/01/23 17:12:34;;;;;;;;;;;4.50;99.90;;;;;;8361879;28;20011;-74
2023/01/23 17:16:36;;;;;;;;;;;4.50;99.90;;;;;;8357744;28;19929;-74
2023/01/23 17:20:37;;;;;;;;;;;4.40;99.90;;;;;;8374352;28;20019;-73
2023/01/23 17:24:40;;;;;;;;;;;4.40;99.90;;;;;;8363086;28;20680;-74
2023/01/23 17:28:42;;;;;;;;;;;4.40;99.90;;;;;;8373891;28;19929;-74
2023/01/23 17:32:54;;;;;;;;;;;4.40;99.90;;;;;;8372873;28;19932;-74
2023/01/23 17:36:56;;;;;;;;;;;4.40;99.90;;;;;;8375170;28;20027;-73
2023/01/23 17:40:58;;;;;;;;;;;4.40;99.90;;;;;;8365584;28;19924;-74
2023/01/23 17:44:59;;;;;;;;;;;4.40;99.90;;;;;;8372888;28;19947;-74
2023/01/23 17:49:01;;;;;;;;;;;4.40;99.90;;;;;;8367050;28;19933;-74
2023/01/23 17:53:03;;;;;;;;;;;4.40;99.90;;;;;;8350122;28;19961;-73
2023/01/23 17:57:07;;;;;;;;;;;4.40;99.90;;;;;;8368826;28;19931;-74
2023/01/23 18:01:37;;;;;;;;;;;4.40;99.90;;;;;;8363204;28;19933;-74
2023/01/23 18:05:39;;;;;;;;;;;4.50;99.90;;;;;;8372953;28;19924;-74
2023/01/23 18:09:41;;;;;;;;;;;4.50;99.90;;;;;;8354405;28;20368;-74
2023/01/23 18:13:49;;;;;;;;;;;4.40;99.90;;;;;;8382604;28;19929;-74
2023/01/23 18:17:57;;;;;;;;;;;4.40;99.90;;;;;;8353913;28;19968;-74
2023/01/23 18:21:58;;;;;;;;;;;4.40;99.90;;;;;;8373644;28;19932;-74
2023/01/23 18:26:12;;;;;;;;;;;4.40;99.90;;;;;;8349612;28;20015;-74
2023/01/23 18:30:33;;;;;;;;;;;4.40;99.90;;;;;;8366477;28;19931;-74
2023/01/23 18:34:34;;;;;;;;;;;4.40;99.90;;;;;;8364595;28;19960;-73
2023/01/23 18:38:49;;;;;;;;;;;4.40;99.90;;;;;;8365403;28;19924;-74
2023/01/23 18:42:54;;;;;;;;;;;4.40;99.90;;;;;;8370852;28;21899;-74
2023/01/23 18:46:55;;;;;;;;;;;4.40;99.90;;;;;;8387848;28;19924;-74
2023/01/23 18:51:07;;;;;;;;;;;4.40;99.90;;;;;;8363696;28;20027;-73
2023/01/23 18:55:22;;;;;;;;;;;4.40;99.90;;;;;;8350506;28;20827;-74
2023/01/23 18:59:32;;;;;;;;;;;4.40;99.90;;;;;;8364769;28;19929;-74
2023/01/23 19:03:38;;;;;;;;;;;4.40;99.90;;;;;;8367640;28;19964;-73
2023/01/23 19:07:40;;;;;;;;;;;4.30;99.90;;;;;;8370333;28;20011;-74
2023/01/23 19:11:55;;;;;;;;;;;4.30;99.90;;;;;;8366708;28;19960;-74
2023/01/23 19:16:10;;;;;;;;;;;4.30;99.90;;;;;;8374671;28;19925;-74
2023/01/23 19:20:27;;;;;;;;;;;4.30;99.90;;;;;;8364822;28;20323;-74
2023/01/23 19:24:28;;;;;;;;;;;4.30;99.90;;;;;;8350858;28;19964;-74
2023/01/23 19:28:30;;;;;;;;;;;4.30;99.90;;;;;;8371023;28;19972;-74
2023/01/23 19:32:32;;;;;;;;;;;4.30;99.90;;;;;;8373271;28;19924;-74
2023/01/23 19:36:34;;;;;;;;;;;4.30;99.90;;;;;;8365092;28;19967;-74
2023/01/23 19:40:36;;;;;;;;;;;4.30;99.90;;;;;;8371104;28;20003;-74
2023/01/23 19:44:38;;;;;;;;;;;4.30;99.90;;;;;;8385140;28;20712;-74
2023/01/23 19:48:39;;;;;;;;;;;4.30;99.90;;;;;;8367574;28;20380;-74
2023/01/23 19:52:42;;;;;;;;;;;4.30;99.90;;;;;;8367781;28;19929;-74
2023/01/23 19:56:43;;;;;;;;;;;4.30;99.90;;;;;;8372031;28;20323;-74
2023/01/23 20:00:45;;;;;;;;;;;4.30;99.90;;;;;;8348396;28;19983;-74
2023/01/23 20:04:47;;;;;;;;;;;4.30;99.90;;;;;;8366234;28;19971;-73
2023/01/23 20:08:49;;;;;;;;;;;4.20;99.90;;;;;;8371562;28;20033;-74
2023/01/23 20:12:51;;;;;;;;;;;4.20;99.90;;;;;;8354436;28;19942;-74
2023/01/23 20:16:52;;;;;;;;;;;4.30;99.90;;;;;;8368759;28;19962;-74
2023/01/23 20:20:57;;;;;;;;;;;4.30;99.90;;;;;;8366527;28;20300;-74
2023/01/23 20:24:58;;;;;;;;;;;4.20;99.90;;;;;;8364953;28;19928;-74
2023/01/23 20:29:00;;;;;;;;;;;4.30;99.90;;;;;;8366345;28;20062;-74
2023/01/23 20:33:04;;;;;;;;;;;4.30;99.90;;;;;;8355991;28;19928;-74
2023/01/23 20:37:05;;;;;;;;;;;4.30;99.90;;;;;;8364115;28;19932;-73
2023/01/23 20:41:09;;;;;;;;;;;4.30;99.90;;;;;;8373645;28;19967;-74
2023/01/23 20:45:10;;;;;;;;;;;4.30;99.90;;;;;;8368665;28;20014;-74
2023/01/23 20:49:13;;;;;;;;;;;4.30;99.90;;;;;;8364849;28;19940;-74
2023/01/23 20:53:29;;;;;;;;;;;4.30;99.90;;;;;;8364810;28;19931;-74
2023/01/23 21:06:25;;;;;;;;;;;4.30;99.90;;;;;;8336665;28;20455;-74
2023/01/23 21:10:27;;;;;;;;;;;4.20;99.90;;;;;;8355283;28;19971;-74
2023/01/23 21:14:28;;;;;;;;;;;4.20;99.90;;;;;;8364936;28;19928;-74
2023/01/23 21:18:30;;;;;;;;;;;4.20;99.90;;;;;;8364690;28;19931;-74
2023/01/23 21:22:32;;;;;;;;;;;4.20;99.90;;;;;;8346977;28;20384;-74
2023/01/23 21:26:34;;;;;;;;;;;4.20;99.90;;;;;;8367215;28;19970;-74
2023/01/23 21:30:38;;;;;;;;;;;4.20;99.90;;;;;;8363305;28;20337;-74
2023/01/23 21:34:40;;;;;;;;;;;4.10;99.90;;;;;;8353504;28;19932;-74
2023/01/23 21:38:42;;;;;;;;;;;4.10;99.90;;;;;;8379638;28;19924;-74
2023/01/23 21:42:44;;;;;;;;;;;4.20;99.90;;;;;;8363083;28;20288;-74
2023/01/23 21:46:45;;;;;;;;;;;4.20;99.90;;;;;;8364777;28;19939;-74
2023/01/23 21:50:47;;;;;;;;;;;4.10;99.90;;;;;;8365030;28;19929;-74
2023/01/23 21:54:49;;;;;;;;;;;4.10;99.90;;;;;;8365908;28;20752;-74
2023/01/23 21:58:51;;;;;;;;;;;4.10;99.90;;;;;;8367115;28;20019;-73
2023/01/23 22:02:53;;;;;;;;;;;4.10;99.90;;;;;;8379394;28;21999;-74
2023/01/23 22:06:57;;;;;;;;;;;4.10;99.90;;;;;;8384800;28;19928;-74
2023/01/23 22:10:58;;;;;;;;;;;4.10;99.90;;;;;;8400689;28;19931;-73
2023/01/23 22:15:00;;;;;;;;;;;4.10;99.90;;;;;;8379781;28;19967;-74
2023/01/23 22:19:02;;;;;;;;;;;4.10;99.90;;;;;;8409031;28;20394;-74
2023/01/23 22:23:03;;;;;;;;;;;4.10;99.90;;;;;;8399711;28;19932;-74
2023/01/23 22:27:05;;;;;;;;;;;4.10;99.90;;;;;;8404878;28;20042;-74
2023/01/23 22:31:09;;;;;;;;;;;4.00;99.90;;;;;;8407268;28;19931;-74
2023/01/23 22:35:11;;;;;;;;;;;4.00;99.90;;;;;;8402494;28;19995;-74
2023/01/23 22:39:18;;;;;;;;;;;4.10;99.90;;;;;;8398373;28;20447;-74
2023/01/23 22:43:20;;;;;;;;;;;4.00;99.90;;;;;;8412494;28;19932;-74
2023/01/23 22:47:21;;;;;;;;;;;4.00;99.90;;;;;;8398335;28;19972;-74
2023/01/23 22:51:24;;;;;;;;;;;4.00;99.90;;;;;;8405585;28;20012;-74
2023/01/23 22:55:26;;;;;;;;;;;4.00;99.90;;;;;;8383786;28;19928;-73
2023/01/23 22:59:28;;;;;;;;;;;4.00;99.90;;;;;;8398108;28;20369;-73
2023/01/23 23:03:33;;;;;;;;;;;4.00;99.90;;;;;;8381149;28;19925;-74
2023/01/23 23:07:35;;;;;;;;;;;4.00;99.90;;;;;;8378724;28;19972;-74
2023/01/23 23:11:37;;;;;;;;;;;4.00;99.90;;;;;;8392818;28;20430;-74
2023/01/23 23:15:39;;;;;;;;;;;4.00;99.90;;;;;;8396623;28;19967;-74
2023/01/23 23:19:41;;;;;;;;;;;4.00;99.90;;;;;;8400899;28;20339;-73
2023/01/23 23:23:42;;;;;;;;;;;4.00;99.90;;;;;;8410416;28;19924;-73
2023/01/23 23:27:44;;;;;;;;;;;4.00;99.90;;;;;;8406518;28;19925;-74
2023/01/23 23:31:50;;;;;;;;;;;4.00;99.90;;;;;;8404698;28;19932;-74
2023/01/23 23:35:52;;;;;;;;;;;4.00;99.90;;;;;;8397825;28;20330;-74
2023/01/23 23:39:53;;;;;;;;;;;4.00;99.90;;;;;;8397603;28;19931;-74
2023/01/23 23:43:55;;;;;;;;;;;4.00;99.90;;;;;;8372848;28;19967;-73
2023/01/23 23:47:56;;;;;;;;;;;4.00;99.90;;;;;;8405060;28;19928;-74
2023/01/23 23:51:58;;;;;;;;;;;4.00;99.90;;;;;;8401194;28;19924;-74
2023/01/23 23:56:00;;;;;;;;;;;4.00;99.90;;;;;;8403079;28;19928;-74
